ULLI Airport Information

Runway Information
Runway 10L Length 11146 ft width 197 ft
Elevation 59 ft Threshold 0 ft Heading 106
Runway 28R Length 11146 ft Width 197 ft
Elevation 66 ft Threshold 0 ft Heading 286
Runway 10R Length 12402 ft width 197 ft
Elevation 66 ft Threshold 0 ft Heading 106
Runway 28L Length 12402 ft Width 197 ft
Elevation 79 ft Threshold 0 ft Heading 286
Airport Frequencies
Type APP Name PETERBURG Frequency 129.8 MHZ
Type ATIS Name ATIS Frequency 127.3 MHZ
Type GND Name TAXIING Frequency 121.7 MHZ
Type RDR Name KRUG Frequency 120.3 MHZ
Type TWR Name TWR Frequency 118.1 MHZ
Airport Navaids
Type NDB Name Pulkovo Frequency 342 KHZ
Type NDB Name Pulkovo Frequency 525 KHZ
Type NDB Name Pulkovo Frequency 277 KHZ
Type NDB Name Pulkovo Frequency 303 KHZ
Type VOR-DME Name Sankt-Peterburg Frequency 113400 KHZ
Airport Weather Information & NOTAM
ADDS - METARS form results

(1255 UTC 25 October 2021)
Data provider http://aviationweather.gov/metar/data/
 
METAR text: ULLI 251230Z 24007MPS 9999 BKN022 09/04 Q1016 R88/190055 NOSIG
Conditions at: ULLI (ST PETERSBURG , RU) observed 1230 UTC 25 October 2021
Temperature: 9.0°C (48°F)
Dewpoint: 4.0°C (39°F) [RH = 71%]
Pressure (altimeter): 30.00 inches Hg (1016.0 mb)
Winds: from the WSW (240 degrees) at 16 MPH (14 knots; 7.2 m/s)
Visibility: 6 or more miles (10+ km)
Ceiling: 2200 feet AGL
Clouds: broken clouds at 2200 feet AGL
Weather: no significant weather observed at this time

METAR text: ULLI 251200Z 24006MPS 9999 BKN021 09/05 Q1016 RMK WS R28L R88/290050 NOSIG
Conditions at: ULLI (ST PETERSBURG , RU) observed 1200 UTC 25 October 2021
Temperature: 9.0°C (48°F)
Dewpoint: 5.0°C (41°F) [RH = 76%]
Pressure (altimeter): 30.00 inches Hg (1016.0 mb)
Winds: from the WSW (240 degrees) at 14 MPH (12 knots; 6.2 m/s)
Visibility: 6 or more miles (10+ km)
Ceiling: 2100 feet AGL
Clouds: broken clouds at 2100 feet AGL
Weather: no significant weather observed at this time

Forecast for: ULLI (ST PETERSBURG , RU)
Text: TAF ULLI 251053Z 2512/2612 23006G12MPS 6000 BKN016
Forecast period: 1200 UTC 25 October 2021 to 1200 UTC 26 October 2021
Forecast type: FROM: standard forecast or significant change
Winds: from the SW (230 degrees) at 14 MPH (12 knots; 6.2 m/s)
gusting to 26 MPH (23 knots; 11.8 m/s)
Visibility: 4 miles (6 km)
Ceiling: 1600 feet AGL
Clouds: broken clouds at 1600 feet AGL
Weather: no significant weather forecast for this period
Text: TEMPO 2520/2608 BKN010 OVC016
Forecast period: 2000 UTC 25 October 2021 to 0800 UTC 26 October 2021
Forecast type: TEMPORARY: The following changes expected for less than half the time period
Visibility: missing
Ceiling: 1000 feet AGL
Clouds: broken clouds at 1000 feet AGL
overcast cloud deck at 1600 feet AGL
Weather: no significant weather forecast for this period